createdAt,value
2019-05-23T00:02:32.357Z,3.58
2019-05-23T00:05:34.348Z,2.92
2019-05-23T00:08:26.064Z,4.08
2019-05-23T00:11:00.771Z,3.92
2019-05-23T00:13:49.122Z,1.55
2019-05-23T00:16:22.671Z,2.77
2019-05-23T00:18:52.431Z,1.85
2019-05-23T00:21:21.159Z,2.67
2019-05-23T00:23:49.622Z,3.30
2019-05-23T00:26:19.107Z,1.30
2019-05-23T00:28:48.752Z,5.45
2019-05-23T00:31:23.410Z,2.95
2019-05-23T00:33:52.633Z,1.98
2019-05-23T00:36:23.986Z,2.50
2019-05-23T00:38:53.170Z,2.42
2019-05-23T00:41:23.088Z,2.50
2019-05-23T00:43:52.321Z,2.50
2019-05-23T00:46:22.268Z,2.65
2019-05-23T00:48:52.935Z,0.88
2019-05-23T00:51:21.941Z,2.00
2019-05-23T00:53:52.269Z,1.30
2019-05-23T00:56:22.923Z,1.40
2019-05-23T00:58:51.841Z,3.58
2019-05-23T01:01:21.872Z,1.85
2019-05-23T01:03:51.108Z,1.00
2019-05-23T01:06:20.650Z,1.15
2019-05-23T01:08:49.423Z,1.95
2019-05-23T01:11:18.519Z,1.15
2019-05-23T01:13:47.311Z,1.57
2019-05-23T01:16:18.447Z,2.12
2019-05-23T01:18:47.426Z,1.52
2019-05-23T01:21:38.994Z,2.20
2019-05-23T01:24:13.710Z,2.15
2019-05-23T01:26:43.353Z,2.10
2019-05-23T01:29:13.086Z,1.37
2019-05-23T01:31:44.111Z,1.55
2019-05-23T01:34:14.152Z,1.35
2019-05-23T01:36:42.944Z,1.17
2019-05-23T01:39:11.621Z,1.32
2019-05-23T01:41:40.632Z,1.45
2019-05-23T01:44:11.174Z,3.10
2019-05-23T01:46:42.198Z,1.02
2019-05-23T01:49:12.779Z,0.80
2019-05-23T01:51:41.102Z,0.90
2019-05-23T01:54:11.256Z,1.65
2019-05-23T01:56:39.394Z,1.45
2019-05-23T01:59:07.978Z,2.08
2019-05-23T02:01:37.174Z,1.37
2019-05-23T02:04:05.924Z,1.00
2019-05-23T02:06:34.217Z,0.50
2019-05-23T02:09:04.161Z,1.07
2019-05-23T02:11:33.084Z,1.47
2019-05-23T02:14:01.477Z,0.70
2019-05-23T02:16:31.040Z,0.65
2019-05-23T02:19:00.112Z,1.47
2019-05-23T02:21:29.522Z,1.10
2019-05-23T02:23:57.844Z,2.72
2019-05-23T02:26:28.451Z,0.82
2019-05-23T02:28:56.516Z,1.65
2019-05-23T02:31:25.606Z,1.70
2019-05-23T02:33:55.070Z,2.15
2019-05-23T02:36:24.017Z,2.40
2019-05-23T02:39:17.631Z,0.35
2019-05-23T02:41:57.990Z,0.40
2019-05-23T02:44:28.719Z,0.88
2019-05-23T02:47:18.961Z,0.50
2019-05-23T02:49:51.256Z,0.85
2019-05-23T02:52:38.303Z,1.25
2019-05-23T02:55:14.495Z,1.67
2019-05-23T02:57:44.486Z,0.98
2019-05-23T03:00:54.748Z,0.82
2019-05-23T03:03:29.403Z,1.27
2019-05-23T03:05:59.887Z,0.17
2019-05-23T03:08:30.678Z,0.17
2019-05-23T03:11:38.291Z,1.00
2019-05-23T03:14:09.097Z,0.40
2019-05-23T03:16:40.298Z,0.42
2019-05-23T03:19:21.200Z,0.50
2019-05-23T03:21:54.651Z,1.67
2019-05-23T03:24:24.344Z,0.23
2019-05-23T03:27:09.520Z,1.15
2019-05-23T03:29:38.941Z,1.47
2019-05-23T03:32:25.932Z,2.80
2019-05-23T03:35:17.193Z,0.62
2019-05-23T03:37:47.920Z,1.07
2019-05-23T03:40:17.801Z,12.07
2019-05-23T03:42:46.782Z,0.35
2019-05-23T03:45:16.910Z,0.30
2019-05-23T03:47:45.679Z,2.00
2019-05-23T03:50:14.744Z,2.55
2019-05-23T03:52:43.665Z,0.65
2019-05-23T03:55:12.683Z,2.72
2019-05-23T03:57:41.165Z,0.98
2019-05-23T04:00:13.859Z,2.45
2019-05-23T04:02:43.612Z,0.65
2019-05-23T04:05:12.149Z,0.78
2019-05-23T04:07:40.993Z,0.40
2019-05-23T04:10:10.312Z,1.75
2019-05-23T04:12:39.201Z,1.42
2019-05-23T04:15:08.869Z,1.85
2019-05-23T04:17:36.882Z,1.27
2019-05-23T04:20:07.483Z,0.42
2019-05-23T04:22:35.977Z,0.28
2019-05-23T04:25:05.093Z,0.72
2019-05-23T04:27:33.917Z,4.10
2019-05-23T04:30:02.201Z,0.88
2019-05-23T04:32:32.080Z,3.72
2019-05-23T04:35:00.422Z,2.62
2019-05-23T04:37:29.318Z,4.25
2019-05-23T04:39:57.851Z,0.20
2019-05-23T04:42:26.385Z,0.30
2019-05-23T04:44:54.702Z,0.72
2019-05-23T04:47:24.168Z,2.15
2019-05-23T04:49:52.134Z,1.85
2019-05-23T04:52:22.686Z,0.20
2019-05-23T04:54:51.094Z,0.42
2019-05-23T04:57:19.324Z,0.68
2019-05-23T04:59:48.074Z,0.37
2019-05-23T05:02:26.213Z,0.28
2019-05-23T05:04:49.687Z,0.80
2019-05-23T05:07:17.888Z,0.47
2019-05-23T05:09:47.872Z,0.35
2019-05-23T05:12:16.946Z,0.57
2019-05-23T05:14:45.435Z,0.88
2019-05-23T05:17:13.786Z,1.85
2019-05-23T05:19:41.841Z,0.20
2019-05-23T05:22:11.160Z,0.23
2019-05-23T05:24:40.297Z,2.25
2019-05-23T05:27:09.339Z,0.70
2019-05-23T05:29:37.594Z,0.23
2019-05-23T05:32:07.869Z,0.20
2019-05-23T05:34:35.996Z,0.53
2019-05-23T05:37:04.362Z,1.42
2019-05-23T05:39:32.732Z,0.57
2019-05-23T05:42:01.309Z,1.20
2019-05-23T05:44:29.599Z,0.00
2019-05-23T05:46:59.047Z,0.72
2019-05-23T05:49:27.227Z,0.93
2019-05-23T05:51:55.649Z,1.65
2019-05-23T05:54:24.289Z,5.08
2019-05-23T05:56:53.350Z,0.95
2019-05-23T05:59:21.336Z,0.40
2019-05-23T06:01:50.910Z,0.42
2019-05-23T06:04:19.544Z,4.55
2019-05-23T06:07:06.455Z,0.40
2019-05-23T06:09:34.814Z,0.23
2019-05-23T06:12:04.397Z,0.10
2019-05-23T06:14:32.606Z,0.47
2019-05-23T06:17:04.311Z,1.85
2019-05-23T06:19:32.287Z,0.40
2019-05-23T06:22:01.977Z,1.45
2019-05-23T06:24:44.756Z,0.33
2019-05-23T06:27:00.228Z,0.17
2019-05-23T06:29:28.687Z,7.85
2019-05-23T06:31:57.162Z,3.10
2019-05-23T06:34:25.856Z,0.72
2019-05-23T06:36:54.708Z,0.10
2019-05-23T06:39:23.177Z,3.70
2019-05-23T06:41:51.198Z,0.68
2019-05-23T06:44:19.592Z,0.45
2019-05-23T06:46:48.185Z,0.72
2019-05-23T06:49:16.334Z,4.05
2019-05-23T06:51:44.717Z,3.72
2019-05-23T06:54:12.946Z,0.50
2019-05-23T06:56:41.279Z,1.15
2019-05-23T06:59:09.259Z,0.70
2019-05-23T07:01:37.453Z,0.40
2019-05-23T07:04:06.895Z,2.45
2019-05-23T07:06:35.459Z,0.85
2019-05-23T07:09:13.739Z,1.57
2019-05-23T07:11:41.761Z,0.62
2019-05-23T07:14:11.040Z,2.50
2019-05-23T07:16:39.246Z,8.45
2019-05-23T07:19:07.299Z,7.28
2019-05-23T07:21:35.876Z,6.53
2019-05-23T07:24:05.202Z,7.47
2019-05-23T07:26:33.204Z,10.00
2019-05-23T07:29:01.655Z,2.85
2019-05-23T07:31:31.505Z,6.20
2019-05-23T07:34:02.210Z,6.65
2019-05-23T07:36:31.452Z,3.00
2019-05-23T07:39:00.132Z,5.40
2019-05-23T07:41:28.422Z,4.62
2019-05-23T07:43:56.645Z,6.12
2019-05-23T07:46:25.016Z,5.25
2019-05-23T07:48:53.918Z,6.37
2019-05-23T07:51:22.170Z,6.28
2019-05-23T07:54:09.798Z,7.65
2019-05-23T07:56:39.618Z,5.80
2019-05-23T07:59:07.713Z,5.95
2019-05-23T08:01:38.206Z,4.10
2019-05-23T08:04:20.305Z,9.05
2019-05-23T08:06:37.765Z,6.55
2019-05-23T08:09:08.988Z,7.62
2019-05-23T08:11:37.039Z,8.55
2019-05-23T08:14:05.509Z,13.62
2019-05-23T08:16:33.698Z,15.45
2019-05-23T08:19:02.559Z,17.05
2019-05-23T08:21:30.533Z,7.62
2019-05-23T08:23:58.838Z,13.80
2019-05-23T08:26:28.035Z,7.03
2019-05-23T08:29:24.213Z,8.13
2019-05-23T08:31:27.914Z,6.15
2019-05-23T08:33:56.632Z,5.85
2019-05-23T08:36:24.636Z,8.73
2019-05-23T08:38:52.749Z,10.48
2019-05-23T08:41:21.001Z,5.03
2019-05-23T08:43:49.879Z,8.88
2019-05-23T08:46:18.470Z,5.15
2019-05-23T08:48:46.661Z,8.40
2019-05-23T08:51:15.960Z,5.35
2019-05-23T08:53:43.974Z,5.67
2019-05-23T08:56:18.731Z,3.30
2019-05-23T08:58:42.321Z,3.67
2019-05-23T09:01:10.969Z,4.35
2019-05-23T09:03:39.678Z,5.65
2019-05-23T09:06:09.593Z,4.20
2019-05-23T09:08:39.015Z,5.22
2019-05-23T09:11:07.249Z,3.47
2019-05-23T09:13:35.340Z,4.65
2019-05-23T09:16:03.585Z,4.35
2019-05-23T09:18:32.276Z,3.58
2019-05-23T09:21:00.491Z,3.33
2019-05-23T09:23:28.534Z,3.33
2019-05-23T09:25:56.540Z,2.80
2019-05-23T09:28:25.013Z,4.55
2019-05-23T09:30:53.241Z,3.92
2019-05-23T09:33:21.277Z,4.30
2019-05-23T09:35:49.426Z,4.22
2019-05-23T09:38:19.041Z,3.85
2019-05-23T09:40:47.294Z,3.90
2019-05-23T09:43:15.745Z,4.15
2019-05-23T09:45:44.027Z,5.17
2019-05-23T09:48:12.455Z,2.98
2019-05-23T09:50:41.001Z,2.75
2019-05-23T09:53:09.114Z,2.67
2019-05-23T09:55:37.905Z,2.85
2019-05-23T09:58:06.017Z,4.97
2019-05-23T10:00:34.986Z,5.28
2019-05-23T10:03:04.010Z,4.25
2019-05-23T10:05:42.807Z,4.15
2019-05-23T10:08:02.162Z,3.77
2019-05-23T10:10:31.073Z,2.67
2019-05-23T10:12:59.157Z,3.98
2019-05-23T10:16:07.288Z,2.65
2019-05-23T10:18:35.705Z,5.15
2019-05-23T10:21:05.189Z,6.33
2019-05-23T10:23:34.452Z,4.83
2019-05-23T10:26:03.366Z,2.58
2019-05-23T10:28:31.717Z,3.22
2019-05-23T10:30:59.716Z,3.25
2019-05-23T10:33:27.869Z,3.05
2019-05-23T10:36:00.537Z,2.75
2019-05-23T10:38:29.278Z,4.12
2019-05-23T10:40:56.175Z,3.37
2019-05-23T10:43:24.689Z,4.78
2019-05-23T10:45:52.821Z,3.10
2019-05-23T10:48:21.761Z,2.10
2019-05-23T10:50:50.701Z,3.00
2019-05-23T10:53:18.718Z,3.58
2019-05-23T10:55:48.074Z,4.45
2019-05-23T10:58:16.370Z,3.40
2019-05-23T11:00:46.410Z,3.42
2019-05-23T11:03:14.667Z,2.72
2019-05-23T11:05:42.872Z,4.25
2019-05-23T11:08:12.290Z,3.70
2019-05-23T11:10:41.086Z,4.22
2019-05-23T11:13:09.121Z,3.77
2019-05-23T11:15:37.807Z,3.45
2019-05-23T11:18:07.771Z,6.53
2019-05-23T11:20:36.394Z,6.47
2019-05-23T11:23:05.431Z,6.45
2019-05-23T11:25:35.649Z,7.80
2019-05-23T11:28:04.369Z,8.93
2019-05-23T11:30:41.044Z,8.63
2019-05-23T11:33:11.657Z,6.67
2019-05-23T11:35:40.188Z,7.50
2019-05-23T11:38:08.633Z,8.33
2019-05-23T11:40:36.822Z,8.08
2019-05-23T11:43:05.145Z,8.30
2019-05-23T11:45:45.525Z,7.25
2019-05-23T11:48:08.176Z,6.72
2019-05-23T11:50:36.268Z,7.15
2019-05-23T11:53:04.614Z,6.78
2019-05-23T11:55:33.282Z,8.35
2019-05-23T11:58:02.473Z,7.03
2019-05-23T12:01:34.683Z,6.22
2019-05-23T12:04:09.601Z,6.87
2019-05-23T12:06:54.350Z,6.78
2019-05-23T12:09:14.653Z,6.55
2019-05-23T12:11:43.194Z,7.25
2019-05-23T12:14:11.443Z,6.37
2019-05-23T12:16:39.791Z,9.00
2019-05-23T12:19:08.486Z,6.12
2019-05-23T12:21:36.532Z,5.65
2019-05-23T12:24:04.691Z,5.05
2019-05-23T12:26:32.660Z,6.20
2019-05-23T12:29:00.888Z,5.03
2019-05-23T12:31:28.860Z,5.72
2019-05-23T12:33:57.027Z,4.35
2019-05-23T12:36:27.252Z,6.70
2019-05-23T12:38:55.390Z,5.47
2019-05-23T12:41:23.402Z,5.35
2019-05-23T12:43:51.759Z,7.12
2019-05-23T12:46:19.838Z,5.87
2019-05-23T12:49:07.449Z,5.20
2019-05-23T12:51:38.415Z,4.65
2019-05-23T12:54:06.614Z,5.42
2019-05-23T12:56:35.087Z,5.65
2019-05-23T12:59:05.318Z,5.03
2019-05-23T13:01:35.235Z,5.08
2019-05-23T13:04:03.963Z,4.08
2019-05-23T13:06:32.348Z,4.15
2019-05-23T13:09:01.005Z,4.92
2019-05-23T13:11:30.400Z,5.90
2019-05-23T13:13:58.449Z,4.58
2019-05-23T13:16:28.539Z,4.87
2019-05-23T13:18:57.519Z,5.30
2019-05-23T13:21:25.511Z,4.67
2019-05-23T13:23:53.529Z,5.70
2019-05-23T13:26:21.939Z,4.42
2019-05-23T13:28:49.911Z,4.45
2019-05-23T13:31:18.745Z,3.80
2019-05-23T13:33:47.301Z,3.95
2019-05-23T13:36:16.068Z,4.70
2019-05-23T13:38:44.425Z,7.10
2019-05-23T13:41:12.970Z,4.50
2019-05-23T13:43:41.365Z,3.62
2019-05-23T13:46:12.055Z,4.30
2019-05-23T13:48:40.126Z,4.22
2019-05-23T13:51:08.247Z,10.70
2019-05-23T13:53:36.247Z,5.87
2019-05-23T13:56:04.765Z,4.03
2019-05-23T13:58:32.771Z,5.33
2019-05-23T14:01:01.294Z,6.12
2019-05-23T14:03:30.174Z,3.87
2019-05-23T14:05:58.165Z,5.37
2019-05-23T14:08:26.775Z,4.37
2019-05-23T14:10:54.830Z,7.25
2019-05-23T14:13:23.431Z,3.20
2019-05-23T14:15:52.786Z,2.22
2019-05-23T14:18:21.558Z,5.67
2019-05-23T14:20:49.757Z,2.65
2019-05-23T14:23:26.306Z,5.12
2019-05-23T14:25:54.777Z,2.27
2019-05-23T14:28:23.267Z,2.47
2019-05-23T14:30:56.283Z,1.57
2019-05-23T14:33:39.899Z,2.90
2019-05-23T14:36:13.787Z,1.75
2019-05-23T14:38:43.163Z,1.17
2019-05-23T14:41:13.141Z,1.98
2019-05-23T14:43:42.718Z,1.55
2019-05-23T14:46:13.654Z,1.67
2019-05-23T14:49:00.488Z,1.17
2019-05-23T14:51:51.224Z,3.02
2019-05-23T14:54:47.821Z,1.42
2019-05-23T14:57:17.690Z,1.00
2019-05-23T14:59:45.892Z,1.15
2019-05-23T15:02:18.239Z,0.95
2019-05-23T15:07:14.293Z,1.42
2019-05-23T15:09:42.284Z,0.90
2019-05-23T15:12:10.483Z,1.47
2019-05-23T15:14:38.497Z,1.00
2019-05-23T15:17:07.107Z,1.92
2019-05-23T15:19:42.061Z,0.90
2019-05-23T15:22:05.255Z,1.57
2019-05-23T15:24:33.300Z,0.82
2019-05-23T15:27:01.371Z,0.65
2019-05-23T15:29:29.752Z,2.45
2019-05-23T15:32:02.897Z,0.55
2019-05-23T15:34:29.130Z,1.55
2019-05-23T15:36:57.628Z,1.60
2019-05-23T15:39:26.559Z,1.07
2019-05-23T15:41:54.536Z,1.27
2019-05-23T15:44:27.912Z,1.42
2019-05-23T15:46:52.625Z,1.25
2019-05-23T15:49:20.807Z,1.50
2019-05-23T15:51:58.621Z,0.85
2019-05-23T15:54:37.372Z,0.82
2019-05-23T15:57:30.700Z,0.70
2019-05-23T16:00:05.760Z,0.68
2019-05-23T16:02:40.806Z,1.47
2019-05-23T16:05:11.774Z,0.60
2019-05-23T16:07:40.558Z,0.60
2019-05-23T16:10:10.522Z,0.50
2019-05-23T16:12:38.932Z,0.93
2019-05-23T16:15:07.527Z,0.70
2019-05-23T16:17:35.836Z,1.00
2019-05-23T16:20:04.707Z,0.40
2019-05-23T16:22:33.196Z,0.60
2019-05-23T16:25:01.644Z,0.37
2019-05-23T16:27:29.764Z,0.30
2019-05-23T16:29:58.688Z,0.78
2019-05-23T16:32:28.123Z,0.40
2019-05-23T16:34:56.111Z,0.35
2019-05-23T16:37:24.148Z,0.50
2019-05-23T16:39:52.670Z,0.70
2019-05-23T16:42:20.745Z,0.42
2019-05-23T16:44:50.167Z,0.30
2019-05-23T16:47:18.545Z,0.40
2019-05-23T16:49:46.802Z,0.45
2019-05-23T16:52:15.171Z,0.30
2019-05-23T16:54:45.905Z,0.40
2019-05-23T16:57:33.604Z,0.28
2019-05-23T17:00:24.778Z,0.40
2019-05-23T17:03:11.455Z,0.40
2019-05-23T17:06:08.055Z,0.20
2019-05-23T17:08:54.831Z,0.25
2019-05-23T17:11:54.755Z,0.20
2019-05-23T17:14:30.860Z,0.15
2019-05-23T17:17:14.556Z,0.40
2019-05-23T17:19:51.653Z,0.40
2019-05-23T17:22:38.000Z,0.30
2019-05-23T17:25:18.323Z,0.30
2019-05-23T17:28:06.287Z,0.20
2019-05-23T17:30:40.606Z,0.10
2019-05-23T17:33:09.686Z,0.17
2019-05-23T17:35:38.067Z,0.53
2019-05-23T17:38:07.330Z,0.20
2019-05-23T17:40:35.536Z,0.20
2019-05-23T17:43:03.650Z,0.20
2019-05-23T17:45:31.838Z,0.20
2019-05-23T17:47:59.957Z,0.20
2019-05-23T17:50:28.757Z,0.10
2019-05-23T17:52:57.382Z,0.20
2019-05-23T17:55:27.916Z,0.80
2019-05-23T17:57:56.893Z,0.13
2019-05-23T18:00:29.530Z,0.10
2019-05-23T18:02:57.617Z,0.17
2019-05-23T18:05:25.789Z,0.05
2019-05-23T18:07:53.875Z,0.17
2019-05-23T18:10:22.033Z,0.30
2019-05-23T18:12:50.370Z,0.40
2019-05-23T18:15:18.379Z,0.10
2019-05-23T18:17:48.862Z,0.20
2019-05-23T18:20:16.819Z,0.37
2019-05-23T18:22:45.792Z,0.10
2019-05-23T18:25:15.862Z,0.10
2019-05-23T18:27:45.033Z,0.10
2019-05-23T18:30:24.637Z,0.00
2019-05-23T18:32:53.430Z,0.10
2019-05-23T18:35:21.996Z,0.28
2019-05-23T18:37:50.286Z,0.20
2019-05-23T18:40:19.058Z,0.10
2019-05-23T18:42:47.039Z,0.08
2019-05-23T18:45:17.198Z,0.10
2019-05-23T18:47:45.481Z,0.10
2019-05-23T18:50:14.258Z,0.10
2019-05-23T18:52:42.548Z,0.20
2019-05-23T18:55:11.435Z,0.00
2019-05-23T18:57:40.715Z,0.20
2019-05-23T19:00:10.330Z,0.20
2019-05-23T19:02:40.156Z,3.67
2019-05-23T19:05:09.507Z,0.93
2019-05-23T19:07:40.340Z,0.53
2019-05-23T19:10:09.541Z,5.42
2019-05-23T19:12:37.854Z,0.93
2019-05-23T19:15:08.777Z,4.92
2019-05-23T19:17:37.243Z,1.55
2019-05-23T19:20:05.599Z,3.60
2019-05-23T19:22:33.938Z,3.27
2019-05-23T19:25:03.529Z,1.45
2019-05-23T19:27:31.994Z,1.90
2019-05-23T19:30:01.580Z,2.15
2019-05-23T19:32:29.746Z,3.87
2019-05-23T19:34:57.930Z,3.20
2019-05-23T19:37:26.019Z,4.22
2019-05-23T19:39:54.240Z,3.08
2019-05-23T19:42:22.802Z,3.85
2019-05-23T19:44:51.201Z,2.90
2019-05-23T19:47:19.798Z,7.05
2019-05-23T19:49:48.243Z,5.42
2019-05-23T19:52:16.502Z,5.10
2019-05-23T19:54:45.328Z,3.12
2019-05-23T19:57:13.742Z,3.17
2019-05-23T19:59:41.861Z,4.83
2019-05-23T20:02:22.862Z,9.70
2019-05-23T20:04:58.159Z,5.53
2019-05-23T20:07:26.791Z,3.72
2019-05-23T20:09:57.358Z,10.53
2019-05-23T20:12:24.665Z,5.35
2019-05-23T20:14:52.912Z,2.67
2019-05-23T20:17:21.229Z,2.83
2019-05-23T20:19:50.448Z,5.03
2019-05-23T20:22:19.163Z,5.70
2019-05-23T20:24:47.176Z,10.53
2019-05-23T20:27:15.476Z,10.30
2019-05-23T20:29:43.659Z,7.45
2019-05-23T20:32:12.805Z,9.00
2019-05-23T20:34:40.950Z,3.77
2019-05-23T20:37:09.163Z,2.77
2019-05-23T20:39:37.593Z,5.30
2019-05-23T20:42:11.309Z,5.40
2019-05-23T20:44:35.982Z,6.20
2019-05-23T20:47:05.399Z,4.50
2019-05-23T20:49:33.365Z,2.65
2019-05-23T20:52:01.642Z,4.03
2019-05-23T20:54:32.899Z,2.52
2019-05-23T20:56:59.677Z,3.08
2019-05-23T20:59:27.766Z,2.22
2019-05-23T21:01:55.868Z,4.05
2019-05-23T21:04:23.934Z,4.20
2019-05-23T21:06:51.921Z,3.50
2019-05-23T21:09:19.956Z,2.60
2019-05-23T21:11:48.158Z,1.45
2019-05-23T21:14:17.374Z,1.60
2019-05-23T21:16:45.349Z,1.65
2019-05-23T21:19:13.638Z,2.42
2019-05-23T21:21:41.609Z,1.37
2019-05-23T21:24:11.215Z,2.27
2019-05-23T21:26:39.214Z,1.67
2019-05-23T21:29:07.289Z,1.55
2019-05-23T21:31:36.080Z,0.80
2019-05-23T21:34:04.703Z,1.35
2019-05-23T21:36:33.124Z,2.47
2019-05-23T21:39:01.329Z,1.57
2019-05-23T21:41:31.298Z,1.55
2019-05-23T21:43:59.749Z,4.30
2019-05-23T21:46:28.336Z,3.30
2019-05-23T21:48:56.281Z,6.55
2019-05-23T21:51:24.660Z,2.75
2019-05-23T21:53:52.668Z,5.80
2019-05-23T21:56:20.645Z,6.08
2019-05-23T21:58:48.687Z,3.92
2019-05-23T22:01:36.733Z,3.33
2019-05-23T22:04:43.534Z,4.45
2019-05-23T22:07:11.838Z,1.22
2019-05-23T22:09:39.907Z,1.85
2019-05-23T22:12:12.890Z,3.47
2019-05-23T22:14:41.905Z,2.80
2019-05-23T22:17:10.079Z,5.12
2019-05-23T22:19:38.445Z,1.32
2019-05-23T22:22:06.508Z,2.02
2019-05-23T22:24:34.883Z,1.10
2019-05-23T22:27:06.476Z,4.50
2019-05-23T22:29:34.518Z,5.15
2019-05-23T22:32:03.282Z,0.57
2019-05-23T22:34:40.450Z,0.47
2019-05-23T22:37:17.121Z,1.90
2019-05-23T22:39:45.489Z,1.57
2019-05-23T22:42:13.756Z,3.27
2019-05-23T22:44:42.280Z,0.50
2019-05-23T22:47:10.465Z,0.78
2019-05-23T22:49:38.873Z,2.37
2019-05-23T22:52:07.038Z,0.90
2019-05-23T22:54:35.071Z,0.95
2019-05-23T22:57:03.331Z,0.80
2019-05-23T22:59:31.297Z,1.22
2019-05-23T23:01:59.783Z,0.80
2019-05-23T23:04:28.082Z,1.57
2019-05-23T23:06:56.047Z,0.60
2019-05-23T23:09:24.458Z,1.20
2019-05-23T23:11:53.107Z,0.40
2019-05-23T23:14:21.081Z,0.40
2019-05-23T23:16:49.668Z,2.05
2019-05-23T23:19:17.754Z,0.70
2019-05-23T23:21:45.737Z,1.75
2019-05-23T23:24:13.720Z,0.68
2019-05-23T23:26:42.054Z,0.40
2019-05-23T23:29:10.902Z,0.82
2019-05-23T23:31:39.450Z,0.90
2019-05-23T23:34:07.407Z,0.45
2019-05-23T23:36:35.663Z,0.33
2019-05-23T23:39:06.082Z,0.53
2019-05-23T23:41:34.359Z,0.70
2019-05-23T23:44:03.327Z,0.85
2019-05-23T23:46:50.130Z,0.35
2019-05-23T23:49:36.629Z,1.00
2019-05-23T23:52:23.319Z,1.02
2019-05-23T23:55:09.839Z,0.53
2019-05-23T23:57:56.172Z,0.50
